IAH weather

George Bush Intercontinental Houston Airport
Houston, Texas, United States

Public forecast

Using degrees Fahrenheit for public forecast. Weather courtesy of forecast.io.

METAR (pilot weather report)

Retrieved 2017/08/18 01:53 UTC (29 minutes ago):

KIAH 180153Z 19008KT 10SM FEW250 31/22 A2998 RMK AO2 SLP150 T03110222

TAF (pilot weather forecast)

Forecast is more than 12 hours old.

Retrieved 2017/08/17 00:22 UTC (1 day ago):

TAF KIAH 172320Z 1800/1906 18006KT P6SM SCT060 FM181400 22007KT P6SM FEW025 FM181800 21006KT P6SM SCT050 FM182000 18007KT P6SM VCSH SCT035 FM190200 17004KT P6SM SCT250